KHIO/HIO METAR and TAF weather

Enter ICAO airport designator
Station Type Date Time Source
KHIO METAR 2019/08/22 19:53 UTC NOAA

KHIO 221953Z 35007KT 10SM BKN041 21/09 A3009 RMK AO2 SLP188 T02060094


Station Type Date Time Source
KHIO Decoded METAR 2019/08/22 19:53 UTC NOAA

Station name not available
Aug 22, 2019 - 03:53 PM EDT / 2019.08.22 1953 UTC
Wind: from the N (350 degrees) at 8 MPH (7 KT):0
Visibility: 10 mile(s):0
Sky conditions: mostly cloudy
Temperature: 69.1 F (20.6 C)
Dew Point: 48.9 F (9.4 C)
Relative Humidity: 48%
Pressure (altimeter): 30.09 in. Hg (1018 hPa)
ob: KHIO 221953Z 35007KT 10SM BKN041 21/09 A3009 RMK AO2 SLP188 T02060094
cycle: 20

Station Type Date Time Source
KHIO TAF 2019/08/22 18:54 UTC NOAA

TAF KHIO 221751Z 2218/2318 28003KT P6SM SCT040
FM222000 31006KT P6SM SCT100
FM230600 33004KT P6SM FEW030

Example: see airport list